Time;durP1;ratioP1;P1;durP2;ratioP2;P2;SDS_P1;SDS_P2;PMS_P1;PMS_P2;Temp;Humidity;BMP_temperature;BMP_pressure;BME280_temperature;BME280_humidity;BME280_pressure;Samples;Min_cycle;Max_cycle;Signal;HPM_P1;HPM_P2
2020/12/08 00:01:50;;;;;;;0.47;0.47;;;15.20;81.80;;;;;;4212244;28;20052;-39
2020/12/08 00:04:11;;;;;;;0.40;0.40;;;15.20;81.90;;;;;;4212473;28;20044;-40
2020/12/08 00:06:32;;;;;;;0.38;0.38;;;15.20;81.90;;;;;;4212834;28;20071;-39
2020/12/08 00:08:53;;;;;;;0.20;0.20;;;15.20;82.00;;;;;;4211986;28;20044;-39
2020/12/08 00:11:16;;;;;;;0.25;0.25;;;15.20;82.00;;;;;;4212280;28;20138;-39
2020/12/08 00:13:37;;;;;;;0.00;0.00;;;15.20;82.00;;;;;;4195305;28;20076;-40
2020/12/08 00:15:58;;;;;;;0.00;0.00;;;15.20;82.10;;;;;;4211230;28;20044;-40
2020/12/08 00:18:21;;;;;;;0.30;0.30;;;15.10;82.20;;;;;;4212555;28;20070;-39
2020/12/08 00:20:42;;;;;;;0.00;0.00;;;15.10;82.30;;;;;;4212312;28;20121;-39
2020/12/08 00:23:03;;;;;;;0.13;0.13;;;15.10;82.30;;;;;;4211793;28;20052;-40
2020/12/08 00:25:24;;;;;;;0.10;0.10;;;15.10;82.50;;;;;;4206492;28;20096;-39
2020/12/08 00:27:48;;;;;;;5.28;1.92;;;15.00;82.50;;;;;;4212172;28;20063;-40
2020/12/08 00:30:12;;;;;;;0.55;0.55;;;15.00;82.70;;;;;;4195816;28;20512;-39
2020/12/08 00:32:37;;;;;;;1.17;1.17;;;15.00;82.60;;;;;;4195409;28;20048;-39
2020/12/08 00:34:58;;;;;;;9.75;0.80;;;15.00;82.70;;;;;;4202845;28;20052;-39
2020/12/08 00:37:21;;;;;;;0.22;0.22;;;15.00;82.80;;;;;;4212011;28;20083;-40
2020/12/08 00:39:42;;;;;;;0.10;0.10;;;15.00;82.70;;;;;;4211811;28;20079;-39
2020/12/08 00:42:06;;;;;;;0.50;0.50;;;15.00;82.80;;;;;;4212097;28;20048;-39
2020/12/08 00:44:27;;;;;;;0.73;0.70;;;14.90;82.70;;;;;;4212157;28;20063;-40
2020/12/08 00:46:49;;;;;;;0.65;0.50;;;14.90;82.80;;;;;;4210920;28;20131;-39
2020/12/08 00:49:10;;;;;;;0.10;0.10;;;14.90;82.90;;;;;;4210727;28;20388;-40
2020/12/08 00:51:32;;;;;;;0.63;0.52;;;14.90;83.90;;;;;;4211163;28;20052;-40
2020/12/08 00:53:53;;;;;;;;;;;14.90;83.00;;;;;;4211081;28;20064;-40
2020/12/08 00:56:17;;;;;;;;;;;14.90;83.10;;;;;;4195715;28;19964;-40
2020/12/08 00:58:44;;;;;;;0.10;0.10;;;14.90;83.20;;;;;;4206367;28;20017;-40
2020/12/08 01:01:08;;;;;;;1.73;1.38;;;14.80;83.20;;;;;;4214421;28;20044;-39
2020/12/08 01:03:29;;;;;;;0.30;0.30;;;14.80;83.20;;;;;;4215225;28;20113;-39
2020/12/08 01:05:52;;;;;;;2.25;0.85;;;14.80;83.30;;;;;;4213982;28;20051;-40
2020/12/08 01:08:16;;;;;;;0.63;0.63;;;14.80;83.30;;;;;;4213631;28;20047;-40
2020/12/08 01:10:37;;;;;;;0.20;0.20;;;14.80;83.40;;;;;;4215391;28;20135;-39
2020/12/08 01:12:59;;;;;;;1.80;1.70;;;14.80;83.40;;;;;;4215069;28;20052;-40
2020/12/08 01:15:20;;;;;;;0.75;0.75;;;14.80;83.40;;;;;;4213586;28;20056;-40
2020/12/08 01:17:41;;;;;;;0.57;0.57;;;14.70;83.40;;;;;;4214730;28;20135;-40
2020/12/08 01:20:03;;;;;;;1.00;1.00;;;14.70;83.50;;;;;;4215602;28;20047;-39
2020/12/08 01:22:26;;;;;;;0.30;0.30;;;14.80;83.60;;;;;;4214047;28;20509;-39
2020/12/08 01:24:47;;;;;;;1.08;0.88;;;14.70;83.60;;;;;;4201524;28;20059;-40
2020/12/08 01:27:08;;;;;;;0.55;0.52;;;14.70;83.60;;;;;;4213737;28;20058;-40
2020/12/08 01:29:29;;;;;;;1.00;1.00;;;14.70;83.60;;;;;;4215005;28;20055;-40
2020/12/08 01:31:50;;;;;;;0.35;0.35;;;14.70;83.70;;;;;;4213827;28;20407;-39
2020/12/08 01:34:13;;;;;;;0.00;0.00;;;14.70;83.80;;;;;;4214343;28;20060;-39
2020/12/08 01:36:34;;;;;;;0.08;0.08;;;14.70;83.80;;;;;;4197822;28;20685;-39
2020/12/08 01:38:56;;;;;;;0.68;0.68;;;14.70;83.90;;;;;;4209608;28;20118;-40
2020/12/08 01:41:18;;;;;;;0.77;0.77;;;14.70;83.90;;;;;;4213421;28;20046;-40
2020/12/08 01:43:46;;;;;;;0.30;0.30;;;14.70;83.90;;;;;;4213438;28;20056;-40
2020/12/08 01:46:08;;;;;;;0.30;0.30;;;14.60;84.00;;;;;;4214474;28;20055;-39
2020/12/08 01:48:34;;;;;;;0.75;0.75;;;14.60;84.00;;;;;;4213834;28;20052;-39
2020/12/08 01:50:58;;;;;;;1.55;1.55;;;14.60;84.10;;;;;;4214420;28;20048;-40
2020/12/08 01:53:20;;;;;;;0.10;0.10;;;14.60;84.10;;;;;;4212896;28;20851;-40
2020/12/08 01:55:48;;;;;;;0.32;0.32;;;14.60;84.00;;;;;;4213163;28;20044;-39
2020/12/08 01:58:14;;;;;;;0.35;0.35;;;14.70;84.00;;;;;;4213664;28;20052;-39
2020/12/08 02:00:41;;;;;;;0.65;0.65;;;14.90;83.40;;;;;;4213356;28;20569;-39
2020/12/08 02:03:02;;;;;;;0.35;0.35;;;15.00;82.70;;;;;;4196357;28;20526;-39
2020/12/08 02:05:33;;;;;;;0.00;0.00;;;15.10;82.10;;;;;;4206427;28;20071;-39
2020/12/08 02:07:54;;;;;;;0.80;0.80;;;15.20;81.60;;;;;;4213546;28;20052;-39
2020/12/08 02:10:15;;;;;;;;;;;15.20;81.20;;;;;;4213514;28;20075;-39
2020/12/08 02:12:38;;;;;;;0.00;0.00;;;15.30;81.10;;;;;;4212954;28;19965;-39
2020/12/08 02:14:59;;;;;;;0.98;0.90;;;15.30;81.00;;;;;;4213031;28;20058;-40
2020/12/08 02:17:20;;;;;;;0.10;0.10;;;15.20;80.90;;;;;;4213037;28;20647;-39
2020/12/08 02:19:44;;;;;;;1.30;0.65;;;15.20;81.00;;;;;;4196207;28;20060;-39
2020/12/08 02:22:07;;;;;;;0.43;0.43;;;15.20;81.10;;;;;;4197231;28;20055;-42
2020/12/08 02:24:29;;;;;;;0.35;0.35;;;15.20;81.20;;;;;;4196465;28;20057;-40
2020/12/08 02:26:50;;;;;;;0.90;0.90;;;15.10;81.20;;;;;;4212851;28;20044;-39
2020/12/08 02:29:13;;;;;;;0.00;0.00;;;15.10;81.50;;;;;;4214082;28;20529;-40
2020/12/08 02:31:37;;;;;;;0.30;0.30;;;15.10;81.60;;;;;;4213689;28;20052;-40
2020/12/08 02:33:58;;;;;;;0.25;0.25;;;15.00;81.60;;;;;;4212360;28;20052;-39
2020/12/08 02:36:19;;;;;;;1.17;0.98;;;15.00;81.70;;;;;;4212191;28;20546;-39
2020/12/08 02:38:43;;;;;;;0.32;0.32;;;15.00;81.80;;;;;;4212239;28;20048;-39
2020/12/08 02:41:05;;;;;;;0.82;0.82;;;15.00;81.80;;;;;;4212109;28;20056;-39
2020/12/08 02:43:26;;;;;;;0.10;0.10;;;14.90;81.80;;;;;;4212645;28;20055;-40
2020/12/08 02:45:51;;;;;;;0.05;0.05;;;15.00;82.10;;;;;;4212401;28;20052;-41
2020/12/08 02:48:12;;;;;;;0.40;0.40;;;14.90;82.10;;;;;;4214022;28;20063;-49
2020/12/08 02:50:50;;;;;;;0.00;0.00;;;14.90;82.10;;;;;;4195608;28;20091;-40
2020/12/08 02:53:11;;;;;;;2.42;2.22;;;14.90;82.20;;;;;;4204749;28;20052;-40
2020/12/08 02:55:34;;;;;;;1.40;1.33;;;15.10;81.60;;;;;;4212098;28;20059;-39
2020/12/08 02:57:55;;;;;;;0.75;0.70;;;15.30;80.80;;;;;;4212182;28;20498;-39
2020/12/08 03:00:16;;;;;;;2.10;1.90;;;15.40;80.30;;;;;;4212118;28;20434;-39
2020/12/08 03:02:37;;;;;;;4.10;2.28;;;15.40;79.80;;;;;;4212059;28;20044;-40
2020/12/08 03:04:58;;;;;;;0.00;0.00;;;15.50;79.70;;;;;;4213820;28;20060;-39
2020/12/08 03:07:21;;;;;;;0.52;0.52;;;15.40;79.60;;;;;;4213279;28;20048;-39
2020/12/08 03:09:42;;;;;;;0.52;0.52;;;15.40;79.60;;;;;;4211878;28;20052;-40
2020/12/08 03:12:07;;;;;;;0.00;0.00;;;15.40;80.70;;;;;;4212768;28;20051;-39
2020/12/08 03:14:28;;;;;;;0.45;0.45;;;15.40;80.00;;;;;;4211536;28;20060;-39
2020/12/08 03:16:52;;;;;;;1.10;0.88;;;15.30;80.10;;;;;;4212295;28;20423;-39
2020/12/08 03:19:13;;;;;;;0.00;0.00;;;15.30;80.30;;;;;;4211705;28;20056;-40
2020/12/08 03:21:34;;;;;;;0.57;0.57;;;15.30;80.40;;;;;;4212224;28;20048;-40
2020/12/08 03:24:00;;;;;;;0.10;0.10;;;15.30;80.30;;;;;;4203082;28;20474;-40
2020/12/08 03:26:23;;;;;;;;;;;15.40;80.00;;;;;;4213392;28;20058;-40
2020/12/08 03:28:48;;;;;;;0.08;0.08;;;15.40;79.70;;;;;;4212366;28;19930;-40
2020/12/08 03:31:09;;;;;;;0.00;0.00;;;15.50;79.50;;;;;;4212206;28;20059;-40
2020/12/08 03:33:34;;;;;;;0.03;0.03;;;15.40;79.40;;;;;;4208359;28;20135;-40
2020/12/08 03:35:59;;;;;;;0.43;0.43;;;15.50;79.20;;;;;;4211606;28;20056;-40
2020/12/08 03:38:22;;;;;;;0.80;0.80;;;15.60;78.80;;;;;;4211399;28;20086;-40
2020/12/08 03:40:44;;;;;;;0.05;0.05;;;15.60;78.60;;;;;;4211710;28;20129;-40
2020/12/08 03:43:15;;;;;;;0.10;0.10;;;15.60;78.40;;;;;;4211219;28;20077;-40
2020/12/08 03:45:38;;;;;;;0.15;0.15;;;15.60;78.40;;;;;;4211279;28;20521;-40
2020/12/08 03:48:00;;;;;;;0.40;0.40;;;15.60;78.60;;;;;;4211327;28;20048;-40
2020/12/08 03:50:29;;;;;;;1.05;1.05;;;15.50;78.60;;;;;;4211555;28;20086;-39
2020/12/08 03:52:50;;;;;;;;;;;15.60;78.80;;;;;;4211297;28;20048;-40
2020/12/08 03:55:11;;;;;;;0.43;0.43;;;15.60;78.70;;;;;;4212520;28;20437;-39
2020/12/08 03:57:35;;;;;;;0.13;0.13;;;15.60;78.70;;;;;;4211354;28;20055;-41
2020/12/08 03:59:56;;;;;;;1.58;1.48;;;15.50;78.70;;;;;;4211217;28;20094;-38
2020/12/08 04:02:18;;;;;;;;;;;15.50;78.80;;;;;;4212145;28;20105;-40
2020/12/08 04:04:40;;;;;;;0.20;0.20;;;15.50;79.00;;;;;;4211171;28;19931;-40
2020/12/08 04:07:01;;;;;;;0.60;0.60;;;15.50;78.90;;;;;;4211623;28;20078;-40
2020/12/08 04:09:22;;;;;;;0.10;0.10;;;15.50;78.60;;;;;;4211810;28;20496;-40
2020/12/08 04:11:48;;;;;;;0.70;0.70;;;15.60;78.60;;;;;;4212543;28;20134;-40
2020/12/08 04:14:10;;;;;;;0.10;0.10;;;15.50;78.60;;;;;;4211303;28;20109;-40
2020/12/08 04:16:36;;;;;;;0.52;0.52;;;15.60;78.60;;;;;;4211346;28;20079;-40
2020/12/08 04:19:00;;;;;;;0.00;0.00;;;15.60;78.40;;;;;;4210929;28;20062;-40
2020/12/08 04:21:24;;;;;;;0.68;0.68;;;15.70;78.10;;;;;;4211397;28;20522;-40
2020/12/08 04:23:51;;;;;;;0.47;0.47;;;15.80;77.30;;;;;;4210852;28;20087;-39
2020/12/08 04:26:13;;;;;;;1.45;0.57;;;15.90;76.80;;;;;;4210876;28;20051;-40
2020/12/08 04:28:39;;;;;;;0.20;0.20;;;16.00;76.40;;;;;;4211403;28;20572;-40
2020/12/08 04:31:01;;;;;;;1.77;1.10;;;16.00;76.30;;;;;;4214145;28;20059;-40
2020/12/08 04:33:22;;;;;;;0.47;0.47;;;16.00;76.20;;;;;;4215596;28;20048;-40
2020/12/08 04:35:45;;;;;;;1.17;1.15;;;16.10;76.00;;;;;;4215246;28;20048;-40
2020/12/08 04:38:06;;;;;;;1.80;1.35;;;16.10;75.90;;;;;;4202170;28;20066;-40
2020/12/08 04:40:27;;;;;;;2.63;2.42;;;16.10;75.90;;;;;;4214818;28;20051;-42
2020/12/08 04:42:49;;;;;;;0.10;0.10;;;16.00;76.10;;;;;;4215742;28;20060;-42
2020/12/08 04:45:10;;;;;;;0.52;0.52;;;15.90;76.20;;;;;;4215890;28;20051;-40
2020/12/08 04:47:35;;;;;;;;;;;16.00;76.50;;;;;;4215709;28;20058;-40
2020/12/08 04:49:57;;;;;;;0.00;0.00;;;15.90;76.60;;;;;;4215116;28;20561;-40
2020/12/08 04:52:18;;;;;;;0.65;0.65;;;15.80;76.70;;;;;;4214879;28;20059;-40
2020/12/08 04:54:41;;;;;;;1.50;0.50;;;15.80;76.80;;;;;;4213996;28;20052;-40
2020/12/08 04:57:02;;;;;;;0.30;0.30;;;15.80;77.00;;;;;;4215278;28;20056;-40
2020/12/08 04:59:23;;;;;;;2.00;1.55;;;15.70;77.20;;;;;;4215692;28;20502;-39
2020/12/08 05:01:44;;;;;;;0.70;0.70;;;15.70;77.20;;;;;;4214867;28;20048;-40
2020/12/08 05:04:09;;;;;;;0.75;0.75;;;15.70;77.30;;;;;;4215162;28;20511;-40
2020/12/08 05:06:30;;;;;;;0.00;0.00;;;15.70;77.30;;;;;;4214996;28;20048;-39
2020/12/08 05:09:09;;;;;;;;;;;15.70;77.50;;;;;;4215250;28;20048;-40
2020/12/08 05:11:31;;;;;;;1.42;1.33;;;15.60;77.50;;;;;;4203241;28;19924;-40
2020/12/08 05:13:59;;;;;;;0.30;0.30;;;15.60;77.60;;;;;;4214808;28;20052;-40
2020/12/08 05:16:20;;;;;;;0.50;0.50;;;15.70;77.30;;;;;;4214984;28;20076;-40
2020/12/08 05:18:45;;;;;;;0.40;0.40;;;15.80;76.80;;;;;;4215136;28;20059;-40
2020/12/08 05:21:09;;;;;;;0.30;0.30;;;15.80;76.60;;;;;;4214628;28;20501;-40
2020/12/08 05:23:38;;;;;;;0.00;0.00;;;15.80;76.70;;;;;;4214872;28;20457;-40
2020/12/08 05:26:07;;;;;;;0.22;0.17;;;15.80;76.60;;;;;;4198016;28;20059;-41
2020/12/08 05:28:28;;;;;;;1.17;1.17;;;15.80;76.60;;;;;;4198136;28;20498;-40
2020/12/08 05:30:50;;;;;;;1.75;0.85;;;15.80;76.70;;;;;;4197958;28;20056;-39
2020/12/08 05:33:15;;;;;;;4.07;2.38;;;15.70;76.80;;;;;;4200442;28;20052;-40
2020/12/08 05:35:36;;;;;;;0.40;0.40;;;15.70;77.00;;;;;;4214730;28;20048;-40
2020/12/08 05:37:57;;;;;;;0.43;0.43;;;15.60;77.20;;;;;;4214560;28;20063;-40
2020/12/08 05:40:19;;;;;;;0.28;0.28;;;15.60;77.40;;;;;;4214796;28;20418;-40
2020/12/08 05:42:45;;;;;;;0.20;0.20;;;15.60;77.70;;;;;;4213557;28;20514;-40
2020/12/08 05:45:08;;;;;;;2.17;1.98;;;15.50;77.90;;;;;;4213674;28;20055;-40
2020/12/08 05:47:29;;;;;;;0.75;0.47;;;15.50;78.00;;;;;;4214237;28;20464;-40
2020/12/08 05:50:00;;;;;;;7.68;1.10;;;15.60;77.50;;;;;;4214417;28;20056;-40
2020/12/08 05:52:21;;;;;;;0.35;0.35;;;15.70;76.80;;;;;;4214739;28;20502;-40
2020/12/08 05:54:42;;;;;;;0.55;0.50;;;15.80;76.50;;;;;;4214706;28;20040;-40
2020/12/08 05:57:15;;;;;;;0.32;0.32;;;15.80;76.20;;;;;;4214767;28;20169;-40
2020/12/08 05:59:36;;;;;;;0.10;0.10;;;15.80;76.20;;;;;;4214491;28;20135;-41
2020/12/08 06:01:58;;;;;;;0.00;0.00;;;16.00;75.80;;;;;;4214059;28;20052;-40
2020/12/08 06:04:20;;;;;;;;;;;16.10;75.00;;;;;;4214720;28;20121;-40
2020/12/08 06:06:50;;;;;;;0.60;0.57;;;16.30;74.30;;;;;;4214292;28;19920;-40
2020/12/08 06:09:22;;;;;;;0.22;0.22;;;16.30;73.80;;;;;;4214151;28;20522;-40
2020/12/08 06:11:42;;;;;;;0.08;0.08;;;16.30;73.70;;;;;;4214348;28;20105;-40
2020/12/08 06:14:03;;;;;;;0.38;0.38;;;16.30;73.80;;;;;;4214532;28;20109;-41
2020/12/08 06:16:24;;;;;;;0.00;0.00;;;16.20;74.20;;;;;;4214233;28;20052;-40
2020/12/08 06:18:46;;;;;;;0.55;0.55;;;16.20;74.00;;;;;;4213632;28;20105;-40
2020/12/08 06:21:18;;;;;;;0.22;0.22;;;16.20;74.20;;;;;;4213807;28;20494;-40
2020/12/08 06:23:42;;;;;;;0.00;0.00;;;16.20;74.30;;;;;;4197957;28;20510;-41
2020/12/08 06:26:04;;;;;;;0.73;0.73;;;16.10;74.50;;;;;;4213813;28;20131;-41
2020/12/08 06:28:25;;;;;;;0.60;0.60;;;16.00;74.80;;;;;;4213827;28;20051;-41
2020/12/08 06:30:46;;;;;;;0.03;0.03;;;16.00;74.70;;;;;;4213756;28;20140;-42
2020/12/08 06:33:07;;;;;;;0.15;0.15;;;16.10;74.60;;;;;;4213788;28;20138;-41
2020/12/08 06:35:32;;;;;;;0.47;0.47;;;16.10;74.60;;;;;;4213498;28;20052;-41
2020/12/08 06:38:06;;;;;;;0.00;0.00;;;16.00;74.70;;;;;;4213891;28;20328;-41
2020/12/08 06:40:28;;;;;;;0.10;0.10;;;16.00;74.90;;;;;;4213360;28;20402;-40
2020/12/08 06:42:49;;;;;;;0.17;0.17;;;16.00;75.00;;;;;;4213532;28;20054;-41
2020/12/08 06:45:12;;;;;;;0.47;0.47;;;16.10;74.60;;;;;;4213677;28;20058;-40
2020/12/08 06:47:35;;;;;;;0.22;0.22;;;16.10;74.00;;;;;;4213534;28;20051;-40
2020/12/08 06:49:56;;;;;;;6.55;0.68;;;16.20;74.00;;;;;;4213603;28;20052;-40
2020/12/08 06:52:17;;;;;;;0.50;0.50;;;16.30;73.50;;;;;;4212863;28;20090;-41
2020/12/08 06:54:40;;;;;;;0.20;0.20;;;16.40;72.80;;;;;;4211092;28;20059;-40
2020/12/08 06:57:04;;;;;;;0.68;0.68;;;16.40;72.50;;;;;;4213085;28;20052;-40
2020/12/08 06:59:27;;;;;;;0.80;0.73;;;16.40;72.60;;;;;;4213300;28;20078;-40
2020/12/08 07:01:53;;;;;;;0.68;0.68;;;16.40;72.60;;;;;;4213470;28;20520;-40
2020/12/08 07:04:13;;;;;;;0.20;0.20;;;16.40;72.70;;;;;;4213768;28;20129;-40
2020/12/08 07:06:34;;;;;;;0.45;0.45;;;16.30;73.10;;;;;;4212872;28;20065;-40
2020/12/08 07:08:57;;;;;;;0.88;0.45;;;16.30;73.40;;;;;;4213069;28;20048;-40
2020/12/08 07:11:19;;;;;;;2.83;1.00;;;16.20;73.90;;;;;;4212820;28;20071;-40
2020/12/08 07:13:40;;;;;;;2.97;2.63;;;16.10;74.50;;;;;;4212857;28;20110;-39
2020/12/08 07:16:01;;;;;;;4.95;2.58;;;16.20;75.70;;;;;;4212447;28;20055;-40
2020/12/08 07:18:22;;;;;;;3.20;0.85;;;16.30;75.60;;;;;;4213581;28;20051;-39
2020/12/08 07:20:44;;;;;;;0.63;0.63;;;16.40;75.00;;;;;;4213372;28;20044;-39
2020/12/08 07:23:06;;;;;;;0.65;0.65;;;16.40;74.50;;;;;;4211070;28;20551;-39
2020/12/08 07:25:28;;;;;;;0.38;0.38;;;16.40;74.30;;;;;;4212053;28;20048;-39
2020/12/08 07:27:50;;;;;;;0.57;0.57;;;16.40;74.20;;;;;;4213041;28;20063;-39
2020/12/08 07:30:12;;;;;;;0.63;0.63;;;16.40;73.90;;;;;;4212546;28;20063;-39
2020/12/08 07:32:33;;;;;;;3.10;0.55;;;16.30;74.10;;;;;;4212980;28;20048;-39
2020/12/08 07:34:54;;;;;;;1.00;1.00;;;16.20;74.00;;;;;;4213049;28;20052;-39
2020/12/08 07:37:18;;;;;;;1.50;1.35;;;16.20;74.30;;;;;;4213037;28;20050;-39
2020/12/08 07:39:42;;;;;;;0.00;0.00;;;16.20;74.40;;;;;;4212249;28;20052;-40
2020/12/08 07:42:09;;;;;;;0.17;0.10;;;16.30;73.50;;;;;;4196041;28;20415;-39
2020/12/08 07:44:32;;;;;;;0.40;0.40;;;16.50;72.60;;;;;;4196153;28;20123;-39
2020/12/08 07:46:52;;;;;;;7.50;2.17;;;16.50;72.10;;;;;;4201805;28;20048;-40
2020/12/08 07:49:14;;;;;;;0.75;0.75;;;16.50;71.80;;;;;;4212695;28;20055;-39
2020/12/08 07:51:38;;;;;;;0.22;0.22;;;16.40;71.90;;;;;;4195931;28;20079;-40
2020/12/08 07:54:01;;;;;;;0.25;0.25;;;16.30;72.20;;;;;;4202450;28;20052;-39
2020/12/08 07:56:25;;;;;;;0.15;0.15;;;16.20;72.90;;;;;;4212676;28;20072;-39
2020/12/08 07:58:47;;;;;;;0.00;0.00;;;16.10;73.40;;;;;;4212975;28;20051;-39
2020/12/08 08:01:07;;;;;;;1.55;1.45;;;16.00;73.50;;;;;;4212516;28;20052;-39
2020/12/08 08:03:29;;;;;;;0.88;0.45;;;16.00;73.80;;;;;;4212395;28;20131;-39
2020/12/08 08:05:59;;;;;;;0.08;0.08;;;15.90;74.00;;;;;;4211623;28;20078;-39
2020/12/08 08:08:22;;;;;;;0.00;0.00;;;15.90;74.50;;;;;;4211997;28;20048;-39
2020/12/08 08:10:43;;;;;;;0.00;0.00;;;15.80;74.80;;;;;;4212979;28;20857;-39
2020/12/08 08:13:04;;;;;;;0.30;0.30;;;15.70;75.20;;;;;;4211940;28;20479;-39
2020/12/08 08:15:27;;;;;;;0.57;0.57;;;15.60;75.60;;;;;;4206193;28;20079;-39
2020/12/08 08:17:48;;;;;;;0.05;0.05;;;15.60;75.90;;;;;;4212118;28;20082;-39
2020/12/08 08:20:09;;;;;;;0.55;0.55;;;15.50;76.40;;;;;;4212244;28;20052;-39
2020/12/08 08:22:30;;;;;;;4.82;1.85;;;15.40;76.60;;;;;;4212589;28;20063;-39
2020/12/08 08:24:54;;;;;;;0.00;0.00;;;15.40;76.40;;;;;;4211721;28;20050;-39
2020/12/08 08:27:15;;;;;;;0.10;0.10;;;15.50;76.70;;;;;;4211819;28;20044;-39
2020/12/08 08:29:36;;;;;;;0.17;0.17;;;15.40;76.70;;;;;;4212173;28;20128;-39
2020/12/08 08:31:58;;;;;;;0.57;0.57;;;15.40;77.00;;;;;;4211738;28;20101;-40
2020/12/08 08:34:19;;;;;;;0.38;0.38;;;15.50;76.50;;;;;;4211740;28;20052;-40
2020/12/08 08:36:49;;;;;;;0.65;0.65;;;15.80;75.60;;;;;;4212016;28;20075;-39
2020/12/08 08:39:11;;;;;;;0.50;0.25;;;15.90;74.80;;;;;;4211862;28;20062;-39
2020/12/08 08:41:32;;;;;;;0.38;0.38;;;15.90;74.50;;;;;;4212451;28;20417;-39
2020/12/08 08:43:53;;;;;;;0.43;0.43;;;15.90;74.40;;;;;;4195597;28;20079;-39
2020/12/08 08:46:15;;;;;;;;;;;15.90;74.30;;;;;;4195659;28;20102;-39
2020/12/08 08:48:37;;;;;;;0.98;0.98;;;15.90;74.50;;;;;;4200348;28;20027;-39
2020/12/08 08:51:00;;;;;;;0.10;0.10;;;15.90;74.60;;;;;;4211822;28;20056;-39
2020/12/08 08:53:21;;;;;;;0.25;0.25;;;15.90;74.50;;;;;;4211682;28;20052;-39
2020/12/08 08:55:42;;;;;;;1.35;0.57;;;15.90;74.40;;;;;;4212483;28;20487;-39
2020/12/08 08:58:07;;;;;;;1.08;0.98;;;15.80;74.80;;;;;;4211800;28;20052;-39
2020/12/08 09:00:28;;;;;;;0.38;0.38;;;15.70;74.90;;;;;;4211777;28;20097;-39
2020/12/08 09:02:49;;;;;;;0.68;0.68;;;15.70;75.20;;;;;;4212099;28;20127;-39
2020/12/08 09:05:13;;;;;;;1.35;0.28;;;15.70;75.30;;;;;;4211631;28;20140;-39
2020/12/08 09:07:34;;;;;;;0.93;0.90;;;15.70;75.30;;;;;;4207807;28;20127;-39
2020/12/08 09:09:56;;;;;;;0.60;0.50;;;15.70;75.40;;;;;;4211753;28;20169;-39
2020/12/08 09:12:18;;;;;;;2.03;1.38;;;15.70;75.50;;;;;;4211396;28;20051;-39
2020/12/08 09:14:40;;;;;;;0.50;0.50;;;15.60;75.50;;;;;;4211881;28;20060;-39
2020/12/08 09:17:01;;;;;;;0.28;0.28;;;15.60;75.60;;;;;;4212110;28;20074;-39
2020/12/08 09:19:24;;;;;;;0.03;0.03;;;15.50;75.80;;;;;;4215056;28;20060;-39
2020/12/08 09:21:50;;;;;;;0.40;0.40;;;15.50;75.70;;;;;;4206233;28;20048;-39
2020/12/08 09:24:11;;;;;;;0.45;0.43;;;15.60;75.60;;;;;;4214902;28;20127;-39
2020/12/08 09:26:33;;;;;;;0.10;0.10;;;15.60;75.40;;;;;;4214074;28;20486;-39
2020/12/08 09:28:56;;;;;;;0.10;0.10;;;15.60;75.40;;;;;;4214866;28;20052;-39
2020/12/08 09:31:17;;;;;;;0.00;0.00;;;15.60;75.50;;;;;;4205804;28;20072;-39
2020/12/08 09:33:39;;;;;;;0.40;0.40;;;15.60;75.80;;;;;;4205960;28;20093;-39
2020/12/08 09:36:00;;;;;;;0.15;0.15;;;15.50;75.90;;;;;;4212737;28;20052;-39
2020/12/08 09:38:22;;;;;;;0.10;0.10;;;15.50;76.00;;;;;;4211594;28;20052;-39
2020/12/08 09:40:43;;;;;;;0.35;0.35;;;15.50;76.20;;;;;;4214728;28;20087;-39
2020/12/08 09:43:05;;;;;;;0.10;0.10;;;15.50;76.20;;;;;;4214139;28;20506;-39
2020/12/08 09:45:26;;;;;;;1.27;1.27;;;15.50;76.30;;;;;;4209664;28;20059;-39
2020/12/08 09:47:47;;;;;;;0.30;0.30;;;15.40;76.40;;;;;;4214385;28;20048;-39
2020/12/08 09:50:10;;;;;;;0.00;0.00;;;15.40;76.60;;;;;;4214190;28;20555;-40
2020/12/08 09:52:34;;;;;;;0.63;0.63;;;15.30;76.80;;;;;;4214100;28;20114;-40
2020/12/08 09:54:55;;;;;;;;;;;15.30;77.10;;;;;;4213714;28;20070;-39
2020/12/08 09:57:19;;;;;;;0.68;0.68;;;15.20;77.50;;;;;;4213547;28;20370;-39
2020/12/08 09:59:40;;;;;;;0.00;0.00;;;15.20;77.70;;;;;;4214395;28;20052;-40
2020/12/08 10:02:02;;;;;;;3.33;1.45;;;15.30;77.40;;;;;;4214480;28;20490;-39
2020/12/08 10:04:23;;;;;;;0.50;0.50;;;15.40;77.00;;;;;;4213922;28;20044;-40
2020/12/08 10:06:47;;;;;;;0.08;0.08;;;15.40;76.70;;;;;;4214387;28;20040;-39
2020/12/08 10:09:08;;;;;;;0.90;0.52;;;15.40;77.60;;;;;;4214036;28;20052;-39
2020/12/08 10:11:30;;;;;;;0.70;0.70;;;15.30;76.70;;;;;;4214243;28;20056;-39
2020/12/08 10:13:51;;;;;;;1.65;0.70;;;15.30;76.80;;;;;;4213889;28;20060;-39
2020/12/08 10:16:18;;;;;;;0.10;0.10;;;15.30;76.90;;;;;;4213916;28;20083;-40
2020/12/08 10:18:40;;;;;;;0.35;0.35;;;15.20;77.30;;;;;;4214360;28;20055;-40
2020/12/08 10:21:03;;;;;;;0.20;0.20;;;15.10;77.60;;;;;;4213927;28;20130;-40
2020/12/08 10:23:27;;;;;;;1.20;1.08;;;15.10;77.80;;;;;;4213620;28;20076;-40
2020/12/08 10:25:48;;;;;;;0.00;0.00;;;15.00;77.80;;;;;;4212397;28;20139;-40
2020/12/08 10:28:10;;;;;;;0.32;0.32;;;15.00;78.10;;;;;;4213808;28;20467;-39
2020/12/08 10:30:31;;;;;;;0.40;0.40;;;14.90;78.50;;;;;;4213614;28;20426;-39
2020/12/08 10:32:52;;;;;;;0.40;0.40;;;15.10;78.20;;;;;;4214083;28;20048;-39
2020/12/08 10:35:13;;;;;;;0.20;0.20;;;15.20;77.20;;;;;;4213731;28;20048;-39
2020/12/08 10:37:36;;;;;;;0.08;0.08;;;15.40;76.60;;;;;;4213384;28;20518;-39
2020/12/08 10:39:58;;;;;;;0.77;0.22;;;15.40;76.20;;;;;;4213917;28;20414;-39
2020/12/08 10:42:19;;;;;;;0.45;0.45;;;15.50;76.10;;;;;;4213230;28;20135;-39
2020/12/08 10:44:40;;;;;;;0.73;0.73;;;15.40;76.10;;;;;;4211775;28;20055;-39
2020/12/08 10:47:01;;;;;;;7.80;3.40;;;15.40;76.20;;;;;;4212683;28;20387;-39
2020/12/08 10:49:23;;;;;;;0.20;0.20;;;15.40;76.40;;;;;;4213902;28;20474;-40
2020/12/08 10:51:44;;;;;;;1.20;0.45;;;15.30;76.70;;;;;;4213806;28;20048;-39
2020/12/08 10:54:08;;;;;;;0.45;0.45;;;15.20;77.00;;;;;;4212013;28;20062;-39
2020/12/08 10:56:32;;;;;;;0.43;0.43;;;15.10;77.20;;;;;;4213308;28;20048;-39
2020/12/08 10:58:54;;;;;;;0.20;0.20;;;15.20;77.50;;;;;;4213363;28;20052;-39
2020/12/08 11:01:20;;;;;;;0.90;0.90;;;15.40;76.80;;;;;;4213253;28;20086;-39
2020/12/08 11:03:41;;;;;;;0.47;0.47;;;15.50;76.00;;;;;;4209137;28;20052;-39
2020/12/08 11:06:02;;;;;;;0.10;0.10;;;15.60;75.50;;;;;;4213564;28;20490;-39
2020/12/08 11:08:23;;;;;;;0.75;0.45;;;15.60;75.30;;;;;;4201560;28;20071;-40
2020/12/08 11:10:44;;;;;;;0.03;0.03;;;15.70;75.20;;;;;;4213101;28;20051;-39
2020/12/08 11:13:08;;;;;;;0.08;0.08;;;15.70;75.40;;;;;;4212994;28;20468;-39
2020/12/08 11:15:29;;;;;;;0.30;0.30;;;15.60;75.50;;;;;;4212946;28;20060;-39
2020/12/08 11:17:51;;;;;;;0.00;0.00;;;15.50;75.70;;;;;;4213520;28;20925;-40
2020/12/08 11:20:12;;;;;;;0.90;0.90;;;15.50;76.10;;;;;;4213041;28;20044;-39
2020/12/08 11:22:34;;;;;;;0.20;0.20;;;15.40;76.40;;;;;;4212982;28;20052;-39
2020/12/08 11:24:55;;;;;;;1.10;0.95;;;15.30;76.70;;;;;;4196489;28;20049;-39
2020/12/08 11:27:17;;;;;;;0.30;0.30;;;15.20;77.10;;;;;;4212364;28;20060;-39
2020/12/08 11:29:40;;;;;;;0.30;0.30;;;15.20;77.50;;;;;;4212646;28;20040;-39
2020/12/08 11:32:00;;;;;;;0.45;0.45;;;15.10;77.80;;;;;;4212775;28;20048;-40
2020/12/08 11:34:22;;;;;;;0.40;0.40;;;15.10;78.20;;;;;;4212826;28;20123;-40
2020/12/08 11:36:43;;;;;;;1.90;1.80;;;15.00;78.50;;;;;;4212751;28;20135;-40
2020/12/08 11:39:04;;;;;;;0.35;0.35;;;14.90;78.70;;;;;;4212545;28;20059;-39
2020/12/08 11:41:25;;;;;;;0.75;0.75;;;14.90;79.00;;;;;;4211983;28;20472;-40
2020/12/08 11:43:46;;;;;;;1.10;1.10;;;14.80;79.30;;;;;;4211844;28;20048;-40
2020/12/08 11:46:11;;;;;;;1.25;1.17;;;14.80;79.40;;;;;;4212371;28;20446;-39
2020/12/08 11:48:33;;;;;;;1.08;1.00;;;14.70;79.60;;;;;;4211839;28;20402;-39
2020/12/08 11:50:55;;;;;;;0.10;0.10;;;14.70;79.90;;;;;;4211084;28;20518;-39
2020/12/08 11:53:17;;;;;;;0.35;0.35;;;14.60;80.00;;;;;;4213022;28;20056;-39
2020/12/08 11:55:37;;;;;;;0.73;0.73;;;14.60;80.20;;;;;;4205661;28;20115;-39
2020/12/08 11:57:59;;;;;;;0.20;0.20;;;14.60;80.30;;;;;;4212138;28;20490;-39
2020/12/08 12:00:20;;;;;;;0.20;0.20;;;14.50;80.30;;;;;;4210570;28;20509;-38
2020/12/08 12:02:41;;;;;;;0.30;0.30;;;14.50;80.50;;;;;;4212711;28;20629;-39
2020/12/08 12:05:03;;;;;;;0.00;0.00;;;14.50;80.70;;;;;;4211603;28;20056;-39
2020/12/08 12:07:25;;;;;;;0.03;0.03;;;14.40;80.80;;;;;;4212503;28;20047;-40
2020/12/08 12:09:45;;;;;;;;;;;14.40;80.60;;;;;;4212939;28;20502;-40
2020/12/08 12:12:06;;;;;;;0.60;0.60;;;14.40;81.10;;;;;;4212234;28;19935;-39
2020/12/08 12:14:27;;;;;;;0.10;0.10;;;14.40;81.20;;;;;;4212127;28;20064;-39
2020/12/08 12:16:48;;;;;;;0.77;0.77;;;14.30;81.40;;;;;;4212189;28;20491;-40
2020/12/08 12:19:09;;;;;;;4.28;2.08;;;14.30;81.40;;;;;;4212505;28;20577;-40
2020/12/08 12:21:30;;;;;;;0.43;0.43;;;14.30;81.50;;;;;;4212240;28;20478;-40
2020/12/08 12:23:52;;;;;;;0.30;0.30;;;14.30;81.30;;;;;;4211879;28;20559;-40
2020/12/08 12:26:16;;;;;;;1.85;0.70;;;14.30;81.20;;;;;;4212227;28;20056;-40